createdAt,value
2019-01-31T00:02:35.810Z,-3.50
2019-01-31T00:05:17.246Z,-3.50
2019-01-31T00:08:01.572Z,-3.50
2019-01-31T00:10:42.923Z,-3.60
2019-01-31T00:13:26.539Z,-3.40
2019-01-31T00:16:12.078Z,-3.50
2019-01-31T00:18:55.662Z,-3.30
2019-01-31T00:21:36.086Z,-3.40
2019-01-31T00:27:09.132Z,-3.40
2019-01-31T00:29:52.135Z,-3.50
2019-01-31T00:35:57.568Z,-3.50
2019-01-31T00:38:42.249Z,-3.50
2019-01-31T00:41:22.919Z,-3.50
2019-01-31T00:46:55.536Z,-3.60
2019-01-31T00:52:18.975Z,-3.30
2019-01-31T00:54:59.630Z,-3.40
2019-01-31T00:57:43.466Z,-3.30
2019-01-31T01:00:24.951Z,-3.20
2019-01-31T01:03:05.737Z,-3.20
2019-01-31T01:05:46.717Z,-3.30
2019-01-31T01:08:35.953Z,-3.20
2019-01-31T01:11:17.386Z,-3.40
2019-01-31T01:13:58.747Z,-3.50
2019-01-31T01:19:30.789Z,-3.50
2019-01-31T01:25:27.068Z,-3.20
2019-01-31T01:30:49.652Z,-3.20
2019-01-31T01:33:30.414Z,-3.30
2019-01-31T01:36:10.900Z,-3.40
2019-01-31T01:38:52.188Z,-3.50
2019-01-31T01:41:33.237Z,-3.50
2019-01-31T01:44:13.841Z,-3.50
2019-01-31T01:46:54.772Z,-3.50
2019-01-31T01:49:35.337Z,-3.20
2019-01-31T01:52:16.366Z,-3.20
2019-01-31T01:54:57.710Z,-3.30
2019-01-31T01:57:38.464Z,-3.20
2019-01-31T02:03:10.515Z,-3.10
2019-01-31T02:08:37.194Z,-3.20
2019-01-31T02:11:18.132Z,-3.20
2019-01-31T02:13:58.838Z,-3.30
2019-01-31T02:16:39.563Z,-3.20
2019-01-31T02:19:20.234Z,-3.20
2019-01-31T02:22:01.075Z,-3.30
2019-01-31T02:24:42.085Z,-3.30
2019-01-31T02:27:22.798Z,-3.20
2019-01-31T02:30:03.820Z,-3.10
2019-01-31T02:35:27.465Z,-3.10
2019-01-31T02:40:55.515Z,-3.00
2019-01-31T02:43:36.998Z,-2.90
2019-01-31T02:46:18.563Z,-3.00
2019-01-31T02:48:59.838Z,-2.90
2019-01-31T02:51:40.739Z,-2.70
2019-01-31T02:54:21.174Z,-2.50
2019-01-31T02:57:01.888Z,-2.30
2019-01-31T02:59:42.406Z,-2.20
2019-01-31T03:02:23.742Z,-2.10
2019-01-31T03:07:46.812Z,-1.90
2019-01-31T03:13:10.623Z,-2.00
2019-01-31T03:15:51.866Z,-1.80
2019-01-31T03:18:35.648Z,-1.80
2019-01-31T03:24:05.174Z,-1.60
2019-01-31T03:29:37.733Z,-1.40
2019-01-31T03:35:06.451Z,-1.30
2019-01-31T03:37:47.041Z,-1.30
2019-01-31T03:43:30.278Z,-1.40
2019-01-31T03:46:10.841Z,-1.60
2019-01-31T03:48:55.384Z,-1.60
2019-01-31T03:51:36.614Z,-1.80
2019-01-31T03:54:18.734Z,-1.80
2019-01-31T03:59:44.275Z,-1.70
2019-01-31T04:02:32.279Z,-1.70
2019-01-31T04:05:11.629Z,-1.70
2019-01-31T04:10:38.662Z,-1.80
2019-01-31T04:16:07.995Z,-1.70
2019-01-31T04:21:30.838Z,-1.60
2019-01-31T04:24:11.978Z,-1.60
2019-01-31T04:26:53.376Z,-1.50
2019-01-31T04:32:16.030Z,-1.60
2019-01-31T04:37:42.650Z,-1.60
2019-01-31T04:43:07.738Z,-1.40
2019-01-31T04:45:48.343Z,-1.50
2019-01-31T04:48:32.513Z,-1.60
2019-01-31T04:53:44.780Z,-1.60
2019-01-31T04:56:32.955Z,-1.60
2019-01-31T04:59:13.997Z,-1.70
2019-01-31T05:01:54.797Z,-1.60
2019-01-31T05:04:35.570Z,-1.70
2019-01-31T05:07:16.523Z,-1.60
2019-01-31T05:10:00.782Z,-1.70
2019-01-31T05:15:24.159Z,-1.70
2019-01-31T05:18:05.390Z,-1.70
2019-01-31T05:20:46.049Z,-1.70
2019-01-31T05:23:26.575Z,-1.60
2019-01-31T05:26:08.055Z,-1.60
2019-01-31T05:28:48.738Z,-1.70
2019-01-31T05:31:29.739Z,-1.70
2019-01-31T05:34:10.421Z,-1.60
2019-01-31T05:36:51.897Z,-1.60
2019-01-31T05:39:32.431Z,-1.50
2019-01-31T05:42:13.796Z,-1.60
2019-01-31T05:44:54.278Z,-1.60
2019-01-31T05:47:35.088Z,-1.50
2019-01-31T05:50:15.582Z,-1.50
2019-01-31T05:52:56.735Z,-1.50
2019-01-31T05:55:37.305Z,-1.50
2019-01-31T05:58:17.732Z,-1.50
2019-01-31T06:00:58.616Z,-1.50
2019-01-31T06:03:39.963Z,-1.50
2019-01-31T06:06:21.340Z,-1.50
2019-01-31T06:09:01.862Z,-1.40
2019-01-31T06:11:42.944Z,-1.40
2019-01-31T06:14:23.553Z,-1.30
2019-01-31T06:17:05.001Z,-1.40
2019-01-31T06:19:46.910Z,-1.40
2019-01-31T06:22:28.020Z,-1.30
2019-01-31T06:25:11.727Z,-1.40
2019-01-31T06:27:53.035Z,-1.40
2019-01-31T06:30:34.096Z,-1.40
2019-01-31T06:33:14.915Z,-1.50
2019-01-31T06:35:55.766Z,-1.50
2019-01-31T06:38:39.705Z,-1.40
2019-01-31T06:41:20.963Z,-1.50
2019-01-31T06:44:02.058Z,-1.50
2019-01-31T06:46:42.837Z,-1.50
2019-01-31T06:49:26.737Z,-1.60
2019-01-31T06:52:08.176Z,-1.60
2019-01-31T06:54:37.174Z,-1.70
2019-01-31T06:57:25.307Z,-1.60
2019-01-31T07:00:06.126Z,-1.70
2019-01-31T07:02:47.445Z,-1.70
2019-01-31T07:05:28.658Z,-1.70
2019-01-31T07:08:09.420Z,-1.60
2019-01-31T07:10:53.621Z,-1.50
2019-01-31T07:13:39.121Z,-1.50
2019-01-31T07:16:22.808Z,-1.60
2019-01-31T07:21:54.565Z,-1.30
2019-01-31T07:27:27.172Z,-1.20
2019-01-31T07:32:56.176Z,-1.30
2019-01-31T07:38:18.813Z,-1.20
2019-01-31T07:43:50.582Z,-1.30
2019-01-31T07:49:16.137Z,-0.90
2019-01-31T07:51:55.556Z,-1.00
2019-01-31T07:54:39.407Z,-0.90
2019-01-31T08:00:05.630Z,-0.90
2019-01-31T08:02:46.822Z,-0.90
2019-01-31T08:05:30.732Z,-0.80
2019-01-31T08:08:11.983Z,-2.20
2019-01-31T08:10:55.003Z,-0.80
2019-01-31T08:16:18.007Z,-0.90
2019-01-31T08:18:59.510Z,-0.70
2019-01-31T08:21:41.195Z,-0.70
2019-01-31T08:27:13.616Z,-0.80
2019-01-31T08:29:54.998Z,-0.60
2019-01-31T08:32:37.013Z,-0.40
2019-01-31T08:35:17.511Z,-0.30
2019-01-31T08:40:43.853Z,-0.10
2019-01-31T08:43:27.535Z,-0.20
2019-01-31T08:46:08.949Z,-0.10
2019-01-31T08:51:41.396Z,0.00
2019-01-31T08:54:21.846Z,0.00
2019-01-31T08:57:03.221Z,0.10
2019-01-31T08:59:43.714Z,0.10
2019-01-31T09:02:24.820Z,0.10
2019-01-31T09:07:53.641Z,0.10
2019-01-31T09:13:42.587Z,0.10
2019-01-31T09:19:08.481Z,0.10
2019-01-31T09:21:49.707Z,0.20
2019-01-31T09:24:51.310Z,0.30
2019-01-31T09:27:58.785Z,0.30
2019-01-31T09:30:42.947Z,0.20
2019-01-31T09:36:15.885Z,0.30
2019-01-31T09:44:37.789Z,0.80
2019-01-31T09:50:05.781Z,0.80
2019-01-31T09:55:34.865Z,0.90
2019-01-31T09:58:16.317Z,0.80
2019-01-31T10:01:19.886Z,1.00
2019-01-31T10:04:04.929Z,0.90
2019-01-31T10:06:50.746Z,1.00
2019-01-31T10:09:58.215Z,1.10
2019-01-31T10:15:39.135Z,1.10
2019-01-31T10:21:11.764Z,1.20
2019-01-31T10:23:52.926Z,1.20
2019-01-31T10:26:34.397Z,1.30
2019-01-31T10:29:30.604Z,1.30
2019-01-31T10:32:14.959Z,1.20
2019-01-31T10:37:46.821Z,1.00
2019-01-31T10:40:54.204Z,1.20
2019-01-31T10:43:34.740Z,1.40
2019-01-31T10:46:20.107Z,1.10
2019-01-31T10:49:00.505Z,0.80
2019-01-31T10:54:25.951Z,0.70
2019-01-31T10:57:06.571Z,0.70
2019-01-31T10:59:47.210Z,0.50
2019-01-31T11:02:37.401Z,0.60
2019-01-31T11:05:14.101Z,0.60
2019-01-31T11:07:54.905Z,0.40
2019-01-31T11:13:19.726Z,0.40
2019-01-31T11:16:01.315Z,0.50
2019-01-31T11:21:30.811Z,0.60
2019-01-31T11:24:38.154Z,0.60
2019-01-31T11:27:36.099Z,0.50
2019-01-31T11:30:16.802Z,0.60
2019-01-31T11:33:24.226Z,0.50
2019-01-31T11:36:05.492Z,0.80
2019-01-31T11:38:45.982Z,0.90
2019-01-31T11:41:26.786Z,1.00
2019-01-31T11:44:07.926Z,0.80
2019-01-31T11:46:48.705Z,0.70
2019-01-31T11:49:29.460Z,0.50
2019-01-31T11:55:04.035Z,0.60
2019-01-31T11:57:45.259Z,0.40
2019-01-31T12:00:27.627Z,0.40
2019-01-31T12:03:16.106Z,0.50
2019-01-31T12:05:57.346Z,0.50
2019-01-31T12:08:38.066Z,0.60
2019-01-31T12:11:19.111Z,0.40
2019-01-31T12:13:59.837Z,0.40
2019-01-31T12:16:41.295Z,0.40
2019-01-31T12:19:10.248Z,0.20
2019-01-31T12:21:58.433Z,0.30
2019-01-31T12:24:39.417Z,0.30
2019-01-31T12:27:20.109Z,0.10
2019-01-31T12:30:01.635Z,-1.20
2019-01-31T12:32:43.172Z,0.20
2019-01-31T12:35:23.982Z,0.10
2019-01-31T12:40:56.524Z,0.00
2019-01-31T12:43:37.569Z,0.00
2019-01-31T12:46:21.133Z,0.10
2019-01-31T12:49:01.911Z,0.10
2019-01-31T12:51:31.029Z,0.10
2019-01-31T12:57:15.095Z,0.20
2019-01-31T13:00:05.719Z,0.30
2019-01-31T13:02:46.729Z,0.40
2019-01-31T13:05:28.012Z,0.50
2019-01-31T13:07:57.225Z,0.40
2019-01-31T13:10:45.546Z,0.50
2019-01-31T13:16:33.170Z,0.80
2019-01-31T13:19:13.749Z,0.80
2019-01-31T13:21:54.516Z,0.70
2019-01-31T13:24:35.367Z,0.60
2019-01-31T13:27:16.355Z,0.60
2019-01-31T13:29:56.824Z,0.50
2019-01-31T13:32:37.510Z,0.40
2019-01-31T13:35:18.269Z,0.40
2019-01-31T13:37:59.087Z,0.50
2019-01-31T13:40:40.281Z,0.50
2019-01-31T13:43:22.043Z,0.50
2019-01-31T13:46:02.644Z,0.30
2019-01-31T13:48:43.948Z,0.40
2019-01-31T13:51:25.451Z,0.40
2019-01-31T13:54:06.049Z,0.60
2019-01-31T13:56:46.845Z,0.50
2019-01-31T13:59:28.369Z,0.30
2019-01-31T14:02:10.342Z,0.20
2019-01-31T14:04:39.519Z,0.30
2019-01-31T14:07:27.823Z,-1.90
2019-01-31T14:10:17.478Z,0.50
2019-01-31T14:12:58.658Z,0.30
2019-01-31T14:18:24.466Z,0.30
2019-01-31T14:21:05.356Z,0.30
2019-01-31T14:23:46.885Z,0.30
2019-01-31T14:26:28.221Z,0.30
2019-01-31T14:29:16.510Z,0.40
2019-01-31T14:31:57.741Z,0.40
2019-01-31T14:34:39.317Z,0.40
2019-01-31T14:37:20.856Z,0.50
2019-01-31T14:40:02.375Z,0.60
2019-01-31T14:42:42.954Z,0.60
2019-01-31T14:45:31.176Z,0.70
2019-01-31T14:48:12.505Z,0.80
2019-01-31T14:50:56.151Z,0.90
2019-01-31T14:53:37.434Z,0.80
2019-01-31T14:56:18.861Z,0.80
2019-01-31T14:58:59.675Z,0.70
2019-01-31T15:01:40.616Z,0.70
2019-01-31T15:04:09.895Z,0.80
2019-01-31T15:06:58.339Z,0.70
2019-01-31T15:09:46.837Z,0.60
2019-01-31T15:12:27.886Z,0.50
2019-01-31T15:15:09.400Z,0.40
2019-01-31T15:20:42.474Z,0.50
2019-01-31T15:26:06.630Z,0.10
2019-01-31T15:28:47.459Z,0.10
2019-01-31T15:31:31.161Z,0.10
2019-01-31T15:37:02.360Z,0.10
2019-01-31T15:39:43.867Z,0.10
2019-01-31T15:42:25.230Z,0.10
2019-01-31T15:47:57.164Z,0.10
2019-01-31T15:50:38.597Z,0.00
2019-01-31T15:53:22.387Z,0.00
2019-01-31T15:58:55.258Z,0.00
2019-01-31T16:04:25.420Z,-0.10
2019-01-31T16:07:06.528Z,-0.20
2019-01-31T16:09:47.958Z,-0.20
2019-01-31T16:15:43.013Z,-0.30
2019-01-31T16:21:14.861Z,-0.30
2019-01-31T16:23:55.509Z,-0.30
2019-01-31T16:26:24.747Z,-0.40
2019-01-31T16:29:13.170Z,-0.40
2019-01-31T16:31:57.042Z,-0.50
2019-01-31T16:34:37.721Z,-0.60
2019-01-31T16:37:06.872Z,-0.70
2019-01-31T16:39:55.219Z,-0.80
2019-01-31T16:42:24.518Z,-0.80
2019-01-31T16:45:13.065Z,-0.80
2019-01-31T16:47:57.480Z,-0.80
2019-01-31T16:50:26.809Z,-0.80
2019-01-31T16:53:15.190Z,-0.80
2019-01-31T16:56:03.560Z,-0.80
2019-01-31T16:58:47.391Z,-0.80
2019-01-31T17:01:28.251Z,-0.80
2019-01-31T17:04:09.315Z,-0.80
2019-01-31T17:09:39.185Z,-1.20
2019-01-31T17:15:04.202Z,-1.30
2019-01-31T17:17:45.597Z,-1.50
2019-01-31T17:20:26.600Z,-1.60
2019-01-31T17:23:10.374Z,-1.60
2019-01-31T17:25:41.337Z,-1.70
2019-01-31T17:28:29.640Z,-1.80
2019-01-31T17:31:10.870Z,-1.70
2019-01-31T17:33:52.440Z,-1.90
2019-01-31T17:36:36.181Z,-2.00
2019-01-31T17:39:19.738Z,-2.20
2019-01-31T17:42:04.220Z,-2.40
2019-01-31T17:44:44.135Z,-2.60
2019-01-31T17:47:24.973Z,-2.60
2019-01-31T17:50:08.375Z,-2.70
2019-01-31T17:55:37.813Z,-2.60
2019-01-31T17:58:07.000Z,-2.60
2019-01-31T18:00:59.287Z,-2.70
2019-01-31T18:03:28.774Z,-2.70
2019-01-31T18:06:18.868Z,-2.60
2019-01-31T18:08:59.933Z,-2.70
2019-01-31T18:11:41.364Z,-2.70
2019-01-31T18:14:10.390Z,-2.70
2019-01-31T18:16:39.499Z,-2.70
2019-01-31T18:19:27.809Z,-2.80
2019-01-31T18:22:16.076Z,-2.90
2019-01-31T18:24:56.861Z,-2.80
2019-01-31T18:27:38.256Z,-3.10
2019-01-31T18:30:19.550Z,-3.20
2019-01-31T18:32:48.682Z,-3.20
2019-01-31T18:35:37.158Z,-3.20
2019-01-31T18:38:25.503Z,-3.40
2019-01-31T18:41:06.381Z,-3.50
2019-01-31T18:43:47.227Z,-3.70
2019-01-31T18:46:27.990Z,-3.80
2019-01-31T18:49:09.705Z,-3.90
2019-01-31T18:51:50.498Z,-4.00
2019-01-31T18:57:34.049Z,-4.00
2019-01-31T19:00:03.206Z,-3.90
2019-01-31T19:02:51.628Z,-3.90
2019-01-31T19:05:40.017Z,-3.80
2019-01-31T19:08:23.755Z,-3.70
2019-01-31T19:10:52.986Z,-3.70
2019-01-31T19:13:22.214Z,-3.70
2019-01-31T19:16:10.600Z,-3.70
2019-01-31T19:18:58.881Z,-3.70
2019-01-31T19:21:40.233Z,-3.60
2019-01-31T19:24:21.199Z,-3.60
2019-01-31T19:29:33.340Z,-3.40
2019-01-31T19:32:22.122Z,-3.30
2019-01-31T19:35:03.509Z,-3.10
2019-01-31T19:37:44.101Z,-3.00
2019-01-31T19:40:25.332Z,-2.90
2019-01-31T19:43:05.856Z,-2.80
2019-01-31T19:45:37.122Z,-2.80
2019-01-31T19:48:25.457Z,-2.80
2019-01-31T19:51:06.348Z,-2.80
2019-01-31T19:53:48.440Z,-2.80
2019-01-31T19:59:18.860Z,-2.60
2019-01-31T20:02:00.379Z,-2.50
2019-01-31T20:04:41.178Z,-2.40
2019-01-31T20:07:22.035Z,-2.30
2019-01-31T20:10:02.965Z,-2.30
2019-01-31T20:15:32.213Z,-2.10
2019-01-31T20:18:13.409Z,-2.30
2019-01-31T20:20:54.309Z,-2.20
2019-01-31T20:26:23.385Z,-2.10
2019-01-31T20:29:04.397Z,-2.00
2019-01-31T20:31:45.385Z,-1.90
2019-01-31T20:34:26.386Z,-2.00
2019-01-31T20:37:07.240Z,-2.00
2019-01-31T20:39:51.104Z,-1.90
2019-01-31T20:42:34.486Z,-1.90
2019-01-31T20:45:04.232Z,-1.90
2019-01-31T20:47:52.456Z,-1.90
2019-01-31T20:50:41.268Z,-1.80
2019-01-31T20:53:10.489Z,-1.70
2019-01-31T20:55:58.767Z,-1.90
2019-01-31T20:58:44.799Z,-1.90
2019-01-31T21:01:25.619Z,-1.80
2019-01-31T21:07:05.916Z,-1.70
2019-01-31T21:12:30.775Z,-1.50
2019-01-31T21:15:13.025Z,-1.60
2019-01-31T21:17:53.916Z,-1.50
2019-01-31T21:20:34.533Z,-1.50
2019-01-31T21:23:04.190Z,-1.50
2019-01-31T21:25:52.520Z,-1.50
2019-01-31T21:28:36.101Z,-1.70
2019-01-31T21:31:17.502Z,-1.50
2019-01-31T21:33:46.651Z,-1.60
2019-01-31T21:36:35.002Z,-1.60
2019-01-31T21:39:16.487Z,-1.50
2019-01-31T21:44:45.988Z,-1.30
2019-01-31T21:47:27.184Z,-1.20
2019-01-31T21:50:08.870Z,-1.20
2019-01-31T21:55:41.371Z,-1.10
2019-01-31T22:01:10.566Z,-1.00
2019-01-31T22:03:55.352Z,-0.90
2019-01-31T22:06:39.912Z,-0.90
2019-01-31T22:12:12.283Z,-0.90
2019-01-31T22:17:36.035Z,-1.00
2019-01-31T22:23:08.237Z,-1.20
2019-01-31T22:25:48.827Z,-1.20
2019-01-31T22:28:29.833Z,-1.10
2019-01-31T22:33:52.573Z,-1.30
2019-01-31T22:36:21.990Z,-1.30
2019-01-31T22:39:10.363Z,-1.30
2019-01-31T22:41:58.555Z,-1.20
2019-01-31T22:44:39.665Z,-1.10
2019-01-31T22:47:26.236Z,-1.10
2019-01-31T22:50:03.378Z,-0.90
2019-01-31T22:55:27.597Z,-0.90
2019-01-31T22:58:08.739Z,-0.90
2019-01-31T23:03:46.316Z,-1.00
2019-01-31T23:06:27.338Z,-1.00
2019-01-31T23:09:08.001Z,-1.00
2019-01-31T23:11:48.610Z,-1.00
2019-01-31T23:14:29.941Z,-1.00
2019-01-31T23:17:10.955Z,-1.00
2019-01-31T23:19:51.475Z,-1.00
2019-01-31T23:22:32.364Z,-1.00
2019-01-31T23:25:13.349Z,-1.00
2019-01-31T23:27:54.199Z,-1.00
2019-01-31T23:33:19.529Z,-1.00
2019-01-31T23:38:48.499Z,-1.00
2019-01-31T23:41:29.579Z,-1.00
2019-01-31T23:44:10.912Z,-1.00
2019-01-31T23:46:51.692Z,-1.00
2019-01-31T23:49:33.047Z,-1.00
2019-01-31T23:52:14.087Z,-1.00
2019-01-31T23:54:43.210Z,-1.00
2019-01-31T23:57:31.417Z,-1.10
